Time;durP1;ratioP1;P1;durP2;ratioP2;P2;SDS_P1;SDS_P2;PMS_P1;PMS_P2;Temp;Humidity;BMP_temperature;BMP_pressure;BME280_temperature;BME280_humidity;BME280_pressure;Samples;Min_cycle;Max_cycle;Signal;HPM_P1;HPM_P2
2021/03/02 00:01:29;;;;;;;41.65;25.58;;;;;;;5.40;75.18;101369.00;5026491;28;20477;-80
2021/03/02 00:03:57;;;;;;;39.25;23.25;;;;;;;5.18;75.33;101372.44;5042560;28;20072;-80
2021/03/02 00:06:24;;;;;;;39.25;22.65;;;;;;;5.12;74.83;101374.78;5017684;28;20059;-78
2021/03/02 00:08:51;;;;;;;30.55;19.15;;;;;;;4.75;76.26;101372.34;5017225;28;20368;-78
2021/03/02 00:11:18;;;;;;;39.72;20.90;;;;;;;5.32;74.49;101370.44;5013421;28;20131;-78
2021/03/02 00:13:46;;;;;;;31.05;20.08;;;;;;;5.54;73.67;101361.78;5038441;28;20063;-78
2021/03/02 00:16:19;;;;;;;33.80;19.75;;;;;;;5.63;73.17;101363.03;5026203;28;20046;-78
2021/03/02 00:18:54;;;;;;;32.10;19.83;;;;;;;5.30;74.23;101364.28;5024272;28;20563;-78
2021/03/02 00:21:28;;;;;;;34.10;18.83;;;;;;;5.49;73.53;101369.38;5028919;28;20056;-78
2021/03/02 00:24:03;;;;;;;35.40;18.17;;;;;;;5.61;73.03;101367.25;5032372;28;20045;-78
2021/03/02 00:26:32;;;;;;;31.77;16.73;;;;;;;5.62;72.91;101366.44;5009539;28;20046;-77
2021/03/02 00:29:04;;;;;;;24.10;13.10;;;;;;;5.56;71.88;101358.41;5019241;28;20125;-79
2021/03/02 00:31:34;;;;;;;22.17;12.60;;;;;;;5.57;71.49;101359.28;5013151;28;20108;-78
2021/03/02 00:34:02;;;;;;;27.33;12.77;;;;;;;5.39;71.57;101355.97;5029965;28;20127;-78
2021/03/02 00:36:29;;;;;;;33.95;15.00;;;;;;;5.58;71.72;101359.38;5028729;28;20936;-77
2021/03/02 00:38:55;;;;;;;27.17;13.85;;;;;;;5.89;71.16;101360.59;5034896;28;20406;-77
2021/03/02 00:41:22;;;;;;;22.95;12.82;;;;;;;5.51;71.72;101365.16;5018362;28;20047;-78
2021/03/02 00:43:53;;;;;;;24.08;12.50;;;;;;;5.86;71.35;101363.91;5018393;28;20049;-77
2021/03/02 00:46:21;;;;;;;24.80;12.52;;;;;;;5.70;71.70;101361.56;5009464;28;20093;-80
2021/03/02 00:48:48;;;;;;;25.95;12.80;;;;;;;5.60;71.75;101356.84;5032001;28;20045;-78
2021/03/02 00:51:16;;;;;;;24.92;12.73;;;;;;;5.61;72.16;101356.03;5021909;28;20464;-78
2021/03/02 00:53:43;;;;;;;27.13;13.00;;;;;;;5.77;72.00;101363.56;5045390;28;20128;-78
2021/03/02 00:56:10;;;;;;;27.52;13.70;;;;;;;5.58;72.26;101363.66;5015881;28;20144;-77
2021/03/02 00:58:38;;;;;;;21.77;11.23;;;;;;;5.92;71.78;101363.28;5018740;28;20055;-77
2021/03/02 01:01:04;;;;;;;21.85;11.70;;;;;;;6.09;70.82;101365.69;5032063;28;20045;-80
2021/03/02 01:03:31;;;;;;;19.08;10.80;;;;;;;6.28;70.01;101367.28;5032317;28;20128;-77
2021/03/02 01:05:58;;;;;;;21.58;11.35;;;;;;;6.33;69.47;101359.66;5034332;28;20053;-80
2021/03/02 01:08:26;;;;;;;23.27;11.35;;;;;;;5.92;71.15;101376.25;5005814;28;20045;-77
2021/03/02 01:10:53;;;;;;;19.52;10.90;;;;;;;6.19;70.23;101366.03;5040817;28;20065;-79
2021/03/02 01:13:22;;;;;;;19.98;10.57;;;;;;;6.34;69.63;101370.06;5020032;28;20140;-78
2021/03/02 01:15:49;;;;;;;27.77;12.60;;;;;;;5.90;71.86;101370.16;5039803;28;20057;-77
2021/03/02 01:18:16;;;;;;;25.02;12.23;;;;;;;5.99;70.54;101375.69;5025916;28;20802;-78
2021/03/02 01:20:42;;;;;;;27.00;12.60;;;;;;;6.33;69.93;101368.28;5025681;28;20757;-77
2021/03/02 01:23:10;;;;;;;20.90;11.73;;;;;;;6.10;70.50;101363.97;5007996;28;20149;-78
2021/03/02 01:25:37;;;;;;;19.63;10.93;;;;;;;6.03;70.10;101372.38;5039931;28;20055;-77
2021/03/02 01:28:05;;;;;;;23.30;12.45;;;;;;;6.03;70.73;101369.78;5004835;28;20136;-77
2021/03/02 01:30:31;;;;;;;24.83;13.65;;;;;;;5.95;71.57;101372.06;5038888;28;20071;-78
2021/03/02 01:32:58;;;;;;;25.90;13.38;;;;;;;6.27;70.96;101365.50;5035710;28;20630;-77
2021/03/02 01:35:25;;;;;;;26.38;12.85;;;;;;;5.97;71.35;101366.94;5027457;28;20084;-78
2021/03/02 01:37:52;;;;;;;26.50;12.85;;;;;;;6.16;71.58;101369.41;5020984;28;20048;-77
2021/03/02 01:40:19;;;;;;;26.02;12.52;;;;;;;6.28;71.10;101366.38;5030230;28;20050;-78
2021/03/02 01:42:46;;;;;;;26.92;12.50;;;;;;;6.43;70.69;101366.91;5022756;28;20140;-77
2021/03/02 01:45:16;;;;;;;27.23;13.82;;;;;;;6.10;71.27;101362.25;5035277;28;20097;-78
2021/03/02 01:47:44;;;;;;;25.85;12.98;;;;;;;6.14;71.36;101358.06;5042657;28;20103;-78
2021/03/02 01:50:12;;;;;;;31.05;14.68;;;;;;;6.19;71.22;101346.13;5027489;28;20049;-78
2021/03/02 01:52:41;;;;;;;29.38;14.05;;;;;;;5.61;72.45;101351.69;5023367;28;20059;-78
2021/03/02 01:55:09;;;;;;;25.60;14.07;;;;;;;6.16;71.63;101346.03;5015184;28;20476;-78
2021/03/02 01:57:36;;;;;;;29.15;13.55;;;;;;;5.99;72.00;101341.97;5037677;28;20412;-77
2021/03/02 02:00:14;;;;;;;28.52;14.55;;;;;;;5.67;72.48;101344.16;5032707;28;20051;-77
2021/03/02 02:02:59;;;;;;;28.35;14.57;;;;;;;5.98;71.63;101341.06;5033842;28;20041;-78
2021/03/02 02:05:32;;;;;;;27.60;13.05;;;;;;;5.92;72.58;101338.25;5036089;28;20056;-78
2021/03/02 02:08:01;;;;;;;;;;;;;;;6.16;72.09;101338.25;5038599;28;20124;-78
2021/03/02 02:10:48;;;;;;;32.13;13.52;;;;;;;6.50;70.55;101327.38;5015473;28;19924;-78
2021/03/02 02:13:22;;;;;;;31.90;16.15;;;;;;;5.82;72.45;101325.72;5035666;28;20041;-77
2021/03/02 02:15:51;;;;;;;28.60;14.52;;;;;;;5.99;72.14;101332.47;5032644;28;20073;-78
2021/03/02 02:18:25;;;;;;;32.03;14.38;;;;;;;6.07;71.90;101333.63;5032923;28;20484;-78
2021/03/02 02:21:10;;;;;;;30.20;14.23;;;;;;;6.30;71.19;101330.97;5037214;28;20045;-78
2021/03/02 02:24:01;;;;;;;33.47;15.25;;;;;;;5.86;72.46;101330.19;5034181;28;20045;-76
2021/03/02 02:26:43;;;;;;;;;;;;;;;6.02;71.79;101329.09;5015532;28;20140;-78
2021/03/02 02:29:15;;;;;;;31.70;14.60;;;;;;;6.04;71.68;101325.69;5007387;28;19929;-78
2021/03/02 02:31:45;;;;;;;30.20;14.20;;;;;;;6.06;71.89;101324.06;5038357;28;20049;-78
2021/03/02 02:34:15;;;;;;;27.40;13.32;;;;;;;6.32;71.29;101319.81;5019701;28;20107;-78
2021/03/02 02:36:47;;;;;;;35.65;15.98;;;;;;;5.38;73.98;101317.94;5032925;28;20044;-79
2021/03/02 02:39:15;;;;;;;;;;;;;;;5.44;73.86;101316.47;5034197;28;20081;-79
2021/03/02 02:41:46;;;;;;;32.80;14.32;;;;;;;5.46;73.90;101316.53;5041346;28;20231;-79
2021/03/02 02:44:21;;;;;;;31.73;14.68;;;;;;;6.07;72.31;101318.06;5011785;28;20420;-76
2021/03/02 02:46:50;;;;;;;31.38;14.73;;;;;;;6.18;71.48;101309.78;5007172;28;20114;-77
2021/03/02 02:49:18;;;;;;;31.83;15.40;;;;;;;6.01;71.52;101310.03;5014512;28;20076;-77
2021/03/02 02:51:45;;;;;;;33.20;15.23;;;;;;;5.92;72.52;101314.00;5034961;28;20567;-77
2021/03/02 02:54:13;;;;;;;36.78;16.58;;;;;;;5.69;73.98;101315.72;5008841;28;20131;-77
2021/03/02 02:56:43;;;;;;;42.05;18.15;;;;;;;5.82;73.20;101314.44;5014792;28;20094;-77
2021/03/02 02:59:24;;;;;;;39.67;16.63;;;;;;;5.52;73.75;101308.97;5012454;28;20049;-76
2021/03/02 03:02:03;;;;;;;43.05;18.60;;;;;;;6.01;72.75;101306.56;5049193;28;20080;-76
2021/03/02 03:04:46;;;;;;;40.58;17.38;;;;;;;6.15;71.99;101305.34;5016687;28;20377;-77
2021/03/02 03:07:23;;;;;;;39.38;16.38;;;;;;;5.44;73.72;101302.63;5026398;28;20122;-77
2021/03/02 03:09:52;;;;;;;38.47;16.73;;;;;;;5.97;72.58;101300.38;5029595;28;20065;-77
2021/03/02 03:12:22;;;;;;;38.35;17.45;;;;;;;6.07;72.04;101292.13;5011654;28;20434;-76
2021/03/02 03:14:54;;;;;;;35.45;16.58;;;;;;;6.11;71.83;101300.88;5029767;28;20063;-76
2021/03/02 03:17:21;;;;;;;39.08;17.80;;;;;;;5.93;72.20;101295.03;5021952;28;20052;-78
2021/03/02 03:19:51;;;;;;;37.33;17.10;;;;;;;5.63;73.25;101292.13;5029782;28;20045;-76
2021/03/02 03:22:18;;;;;;;38.40;17.85;;;;;;;5.53;73.49;101296.09;5026939;28;20055;-78
2021/03/02 03:24:45;;;;;;;45.95;18.45;;;;;;;5.63;73.25;101293.03;5011444;28;20364;-77
2021/03/02 03:27:14;;;;;;;40.70;18.50;;;;;;;5.48;74.38;101291.56;5037623;28;20045;-77
2021/03/02 03:29:43;;;;;;;43.00;18.95;;;;;;;5.57;74.78;101286.72;5018788;28;20055;-77
2021/03/02 03:32:11;;;;;;;42.25;18.92;;;;;;;5.42;75.05;101288.75;5030705;28;20060;-78
2021/03/02 03:34:43;;;;;;;39.03;17.35;;;;;;;5.55;74.50;101273.72;5032462;28;20049;-77
2021/03/02 03:37:11;;;;;;;36.90;15.90;;;;;;;5.42;74.30;101275.78;5027265;28;20072;-77
2021/03/02 03:39:38;;;;;;;35.22;16.23;;;;;;;5.53;73.95;101279.66;5029681;28;20445;-77
2021/03/02 03:42:05;;;;;;;37.00;15.85;;;;;;;5.74;72.83;101274.41;5011387;28;20053;-77
2021/03/02 03:44:32;;;;;;;30.80;14.43;;;;;;;5.58;73.72;101268.63;5011333;28;20139;-77
2021/03/02 03:46:59;;;;;;;28.88;13.27;;;;;;;5.63;73.46;101264.50;5022186;28;20455;-78
2021/03/02 03:49:26;;;;;;;31.65;13.57;;;;;;;5.59;73.74;101272.13;5012143;28;20045;-78
2021/03/02 03:51:55;;;;;;;28.17;13.30;;;;;;;5.54;74.09;101271.06;5022340;28;20048;-78
2021/03/02 03:54:25;;;;;;;24.70;11.80;;;;;;;5.34;73.96;101262.50;5015376;28;20056;-79
2021/03/02 03:56:53;;;;;;;22.05;12.15;;;;;;;5.30;74.25;101270.13;5023407;28;20311;-78
2021/03/02 03:59:25;;;;;;;24.70;12.50;;;;;;;5.57;73.18;101268.56;5030778;28;21529;-78
2021/03/02 04:01:53;;;;;;;25.65;12.30;;;;;;;5.52;74.20;101264.91;5026230;28;20060;-78
2021/03/02 04:04:22;;;;;;;26.95;12.32;;;;;;;5.46;73.99;101270.78;5033911;28;20595;-78
2021/03/02 04:06:50;;;;;;;26.73;13.75;;;;;;;5.22;74.92;101268.13;5035011;28;20072;-78
2021/03/02 04:09:18;;;;;;;26.80;13.55;;;;;;;5.33;75.10;101271.09;5029379;28;20045;-78
2021/03/02 04:11:44;;;;;;;28.15;12.57;;;;;;;5.22;75.65;101272.41;5030958;28;20049;-79
2021/03/02 04:14:11;;;;;;;33.25;13.68;;;;;;;4.99;76.67;101275.81;5025053;28;20044;-79
2021/03/02 04:16:38;;;;;;;32.35;13.43;;;;;;;4.88;76.51;101267.59;5049532;28;20050;-78
2021/03/02 04:19:05;;;;;;;27.77;12.45;;;;;;;5.03;76.17;101267.34;5039244;28;20055;-79
2021/03/02 04:21:32;;;;;;;31.75;14.05;;;;;;;5.15;76.46;101263.50;5034499;28;20054;-78
2021/03/02 04:23:58;;;;;;;36.15;14.82;;;;;;;4.92;77.08;101266.91;5016901;28;20898;-79
2021/03/02 04:26:25;;;;;;;33.25;14.48;;;;;;;4.77;77.29;101263.69;5016929;28;20073;-78
2021/03/02 04:28:52;;;;;;;27.90;13.07;;;;;;;4.71;76.96;101263.44;5025628;28;20057;-79
2021/03/02 04:31:19;;;;;;;26.52;12.35;;;;;;;5.21;75.07;101263.75;5016165;28;20718;-79
2021/03/02 04:33:46;;;;;;;26.55;12.65;;;;;;;5.39;73.98;101254.91;5018668;28;20129;-78
2021/03/02 04:36:13;;;;;;;36.08;15.25;;;;;;;4.65;76.34;101261.47;5031850;28;20079;-78
2021/03/02 04:38:40;;;;;;;30.58;15.00;;;;;;;4.98;75.92;101271.44;5040349;28;20045;-78
2021/03/02 04:41:07;;;;;;;27.17;12.77;;;;;;;5.06;74.63;101259.69;5016276;28;20596;-78
2021/03/02 04:43:36;;;;;;;30.75;13.75;;;;;;;4.67;75.86;101251.19;5032667;28;20183;-78
2021/03/02 04:46:07;;;;;;;29.77;14.40;;;;;;;4.78;75.39;101256.00;5036962;28;20773;-77
2021/03/02 04:48:34;;;;;;;28.83;13.77;;;;;;;4.88;75.61;101253.78;5020717;28;20049;-77
2021/03/02 04:51:02;;;;;;;24.10;11.85;;;;;;;4.85;75.47;101254.50;5037549;28;20344;-77
2021/03/02 04:53:31;;;;;;;25.08;12.63;;;;;;;4.73;75.46;101251.44;5035096;28;20057;-77
2021/03/02 04:55:58;;;;;;;24.00;12.20;;;;;;;4.97;74.33;101256.72;5037024;28;20065;-78
2021/03/02 04:58:24;;;;;;;21.85;10.38;;;;;;;4.51;75.38;101261.75;5018246;28;20571;-77
2021/03/02 05:00:51;;;;;;;21.05;9.88;;;;;;;5.04;73.55;101256.13;5027421;28;20399;-77
2021/03/02 05:03:19;;;;;;;20.13;10.40;;;;;;;5.08;73.25;101256.34;5015197;28;20169;-78
2021/03/02 05:05:45;;;;;;;19.70;9.50;;;;;;;5.27;72.31;101253.59;5020258;28;20060;-77
2021/03/02 05:08:13;;;;;;;23.73;11.57;;;;;;;5.09;72.78;101255.50;5032268;28;20141;-77
2021/03/02 05:10:39;;;;;;;21.83;11.20;;;;;;;5.28;72.52;101259.69;5049679;28;20049;-78
2021/03/02 05:13:06;;;;;;;22.63;10.95;;;;;;;5.50;71.71;101259.69;5031539;28;20055;-77
2021/03/02 05:15:33;;;;;;;22.27;10.88;;;;;;;5.14;73.18;101251.38;5040550;28;20045;-78
2021/03/02 05:18:00;;;;;;;26.95;12.35;;;;;;;5.55;71.84;101254.69;5034313;28;20061;-80
2021/03/02 05:20:27;;;;;;;23.42;11.95;;;;;;;5.67;71.38;101253.41;5016811;28;20065;-77
2021/03/02 05:22:54;;;;;;;23.50;12.20;;;;;;;5.13;73.08;101252.19;5003002;28;20305;-78
2021/03/02 05:25:20;;;;;;;25.65;12.18;;;;;;;4.79;74.06;101251.69;5027931;28;20059;-79
2021/03/02 05:27:47;;;;;;;30.13;12.35;;;;;;;4.55;75.33;101251.59;5039809;28;20050;-78
2021/03/02 05:30:14;;;;;;;28.15;12.32;;;;;;;4.50;75.08;101254.78;5028560;28;20068;-78
2021/03/02 05:32:41;;;;;;;30.85;13.60;;;;;;;4.20;76.65;101259.53;5038035;28;20236;-78
2021/03/02 05:35:08;;;;;;;33.70;14.63;;;;;;;4.87;74.47;101255.47;5024758;28;20419;-77
2021/03/02 05:37:35;;;;;;;36.72;15.77;;;;;;;5.20;74.08;101261.97;5032347;28;20513;-78
2021/03/02 05:40:03;;;;;;;35.25;15.00;;;;;;;5.00;73.83;101264.59;5029618;28;20048;-78
2021/03/02 05:42:30;;;;;;;40.85;15.18;;;;;;;5.22;73.33;101269.81;5034077;28;20136;-78
2021/03/02 05:44:56;;;;;;;33.47;14.98;;;;;;;5.09;73.99;101260.66;5034017;28;20049;-78
2021/03/02 05:47:23;;;;;;;38.08;15.60;;;;;;;5.07;74.41;101264.94;5038153;28;20057;-79
2021/03/02 05:49:55;;;;;;;38.13;16.20;;;;;;;5.12;73.61;101260.81;5033559;28;20045;-80
2021/03/02 05:52:24;;;;;;;37.50;15.45;;;;;;;5.06;74.53;101260.56;5019675;28;20055;-77
2021/03/02 05:54:52;;;;;;;43.92;16.80;;;;;;;4.74;74.34;101259.28;5031068;28;20159;-78
2021/03/02 05:57:19;;;;;;;45.35;16.85;;;;;;;4.91;74.87;101261.66;5031680;28;20059;-77
2021/03/02 05:59:46;;;;;;;47.67;18.35;;;;;;;5.34;73.23;101259.03;5030989;28;20595;-78
2021/03/02 06:02:13;;;;;;;56.70;21.15;;;;;;;4.82;74.69;101259.56;5024727;28;20425;-80
2021/03/02 06:04:40;;;;;;;53.92;21.25;;;;;;;4.23;76.05;101265.72;5036524;28;20096;-78
2021/03/02 06:07:07;;;;;;;56.55;20.15;;;;;;;4.22;76.15;101268.25;5032321;28;20084;-77
2021/03/02 06:09:34;;;;;;;56.22;20.55;;;;;;;4.36;74.85;101270.59;5019565;28;20060;-77
2021/03/02 06:12:04;;;;;;;61.67;21.13;;;;;;;4.79;74.25;101275.00;5031224;28;20114;-78
2021/03/02 06:14:34;;;;;;;59.50;22.65;;;;;;;5.32;72.21;101274.53;5032464;28;20045;-77
2021/03/02 06:17:03;;;;;;;72.13;26.23;;;;;;;4.33;74.66;101274.75;5026830;28;20389;-78
2021/03/02 06:19:44;;;;;;;72.50;25.25;;;;;;;4.30;75.16;101275.53;5040400;28;20463;-78
2021/03/02 06:22:34;;;;;;;79.30;28.67;;;;;;;4.27;75.66;101282.25;5028320;28;20057;-78
2021/03/02 06:25:03;;;;;;;74.45;26.70;;;;;;;4.74;74.14;101276.50;5034622;28;20128;-79
2021/03/02 06:27:33;;;;;;;88.75;31.42;;;;;;;4.13;76.00;101273.00;5021142;28;20056;-79
2021/03/02 06:30:14;;;;;;;90.93;33.17;;;;;;;4.54;74.29;101273.09;5024610;28;20118;-80
2021/03/02 06:32:45;;;;;;;100.80;32.97;;;;;;;4.67;74.55;101277.94;5039522;28;20088;-78
2021/03/02 06:35:28;;;;;;;;;;;;;;;4.89;74.30;101278.84;5011915;28;20069;-76
2021/03/02 06:37:55;;;;;;;108.75;36.70;;;;;;;4.53;74.91;101278.19;5015294;28;19964;-77
2021/03/02 06:40:38;;;;;;;104.20;35.97;;;;;;;4.14;75.70;101279.97;5013576;28;20042;-77
2021/03/02 06:43:06;;;;;;;102.53;34.70;;;;;;;3.63;77.61;101276.84;5024549;28;20045;-77
2021/03/02 06:45:33;;;;;;;92.05;31.52;;;;;;;4.22;75.99;101284.66;5017959;28;20073;-77
2021/03/02 06:48:06;;;;;;;93.55;30.60;;;;;;;4.91;73.69;101287.53;5035238;28;20041;-78
2021/03/02 06:50:38;;;;;;;92.22;31.05;;;;;;;4.41;74.61;101280.28;5029717;28;20045;-78
2021/03/02 06:53:10;;;;;;;78.05;29.08;;;;;;;4.67;74.34;101279.66;5014212;28;20069;-79
2021/03/02 06:55:39;;;;;;;75.68;25.10;;;;;;;4.42;75.68;101279.44;5042246;28;20059;-76
2021/03/02 06:58:16;;;;;;;102.38;22.63;;;;;;;4.25;76.29;101277.03;5011326;28;20155;-77
2021/03/02 07:00:50;;;;;;;78.75;21.05;;;;;;;4.18;77.29;101284.44;5033010;28;20041;-75
2021/03/02 07:03:28;;;;;;;80.38;20.52;;;;;;;4.41;75.89;101286.34;5023958;28;20076;-76
2021/03/02 07:05:57;;;;;;;56.17;22.08;;;;;;;4.33;76.13;101292.88;5032484;28;20443;-77
2021/03/02 07:08:24;;;;;;;71.63;21.48;;;;;;;4.28;76.50;101289.19;5030006;28;20045;-77
2021/03/02 07:10:53;;;;;;;76.45;22.42;;;;;;;4.15;76.30;101279.16;5030826;28;20043;-77
2021/03/02 07:13:22;;;;;;;71.28;24.27;;;;;;;4.15;76.22;101295.56;5011326;28;20049;-77
2021/03/02 07:15:53;;;;;;;90.80;25.42;;;;;;;4.19;75.34;101294.88;5030343;28;20081;-77
2021/03/02 07:18:24;;;;;;;89.72;25.38;;;;;;;4.32;75.58;101293.69;5020336;28;21071;-77
2021/03/02 07:20:54;;;;;;;74.90;23.75;;;;;;;4.13;76.07;101302.34;5028300;28;20037;-76
2021/03/02 07:23:23;;;;;;;72.20;24.60;;;;;;;3.79;77.61;101301.69;5017243;28;20052;-78
2021/03/02 07:25:51;;;;;;;89.45;26.13;;;;;;;3.96;77.65;101303.31;5038259;28;20064;-77
2021/03/02 07:28:24;;;;;;;78.15;21.40;;;;;;;4.20;76.08;101296.66;5020903;28;20111;-77
2021/03/02 07:30:52;;;;;;;62.20;19.95;;;;;;;4.28;75.62;101303.03;5031569;28;20080;-78
2021/03/02 07:33:20;;;;;;;118.07;19.75;;;;;;;4.26;74.97;101302.09;5036924;28;20107;-78
2021/03/02 07:35:53;;;;;;;74.95;19.52;;;;;;;4.15;75.16;101307.59;5035776;28;20125;-77
2021/03/02 07:38:23;;;;;;;73.72;20.10;;;;;;;4.01;75.85;101312.16;5033626;28;20049;-78
2021/03/02 07:40:54;;;;;;;100.22;22.48;;;;;;;4.00;75.50;101312.97;5034575;28;20051;-78
2021/03/02 07:43:29;;;;;;;59.28;17.88;;;;;;;4.30;74.84;101311.75;5019310;28;20071;-78
2021/03/02 07:45:58;;;;;;;59.67;17.98;;;;;;;4.46;74.89;101315.00;5037757;28;20123;-77
2021/03/02 07:48:32;;;;;;;57.40;18.48;;;;;;;4.60;74.90;101314.78;5036695;28;20052;-79
2021/03/02 07:51:22;;;;;;;81.88;16.95;;;;;;;4.59;74.19;101312.09;5040102;28;20045;-78
2021/03/02 07:53:52;;;;;;;73.22;16.42;;;;;;;4.61;74.25;101311.34;5044806;28;20044;-79
2021/03/02 07:56:22;;;;;;;51.75;16.13;;;;;;;4.66;73.86;101316.72;5019881;28;20063;-78
2021/03/02 07:59:09;;;;;;;72.38;13.52;;;;;;;4.42;73.89;101305.31;5029102;28;20045;-78
2021/03/02 08:01:36;;;;;;;38.53;13.57;;;;;;;3.96;75.29;101313.66;5038430;28;20099;-77
2021/03/02 08:04:13;;;;;;;46.95;15.32;;;;;;;3.63;76.95;101317.28;5042210;28;20052;-77
2021/03/02 08:06:43;;;;;;;64.45;14.18;;;;;;;4.04;75.68;101314.88;5021993;28;20094;-77
2021/03/02 08:09:25;;;;;;;68.32;15.70;;;;;;;3.90;76.50;101323.72;5021068;28;20075;-77
2021/03/02 08:11:54;;;;;;;37.38;13.75;;;;;;;3.84;75.90;101324.31;5046304;28;20049;-77
2021/03/02 08:14:20;;;;;;;53.85;14.55;;;;;;;4.34;74.11;101325.69;5038037;28;20119;-78
2021/03/02 08:17:00;;;;;;;70.88;14.82;;;;;;;4.41;73.97;101324.28;5042853;28;20056;-78
2021/03/02 08:19:34;;;;;;;57.97;14.18;;;;;;;4.34;74.12;101328.28;5037879;28;20049;-78
2021/03/02 08:22:02;;;;;;;34.38;14.95;;;;;;;4.63;73.64;101327.84;5034737;28;20060;-78
2021/03/02 08:24:58;;;;;;;60.20;17.70;;;;;;;4.59;73.84;101335.41;5043724;28;20068;-80
2021/03/02 08:27:52;;;;;;;51.90;16.95;;;;;;;4.66;73.64;101334.81;5018824;28;20381;-79
2021/03/02 08:30:25;;;;;;;45.13;15.23;;;;;;;4.59;73.58;101328.53;5045273;28;20049;-79
2021/03/02 08:32:57;;;;;;;35.25;13.88;;;;;;;4.23;73.74;101326.91;5042363;28;20049;-78
2021/03/02 08:35:31;;;;;;;30.45;12.98;;;;;;;4.21;74.06;101324.28;5036574;28;20081;-79
2021/03/02 08:38:06;;;;;;;25.83;10.05;;;;;;;4.06;73.63;101320.13;5040823;28;20134;-77
2021/03/02 08:40:33;;;;;;;29.13;12.48;;;;;;;4.05;73.13;101328.69;5040636;28;20046;-76
2021/03/02 08:43:07;;;;;;;25.13;10.75;;;;;;;4.30;71.69;101328.97;5020500;28;20053;-76
2021/03/02 08:45:38;;;;;;;22.63;9.38;;;;;;;4.11;72.38;101326.38;5032173;28;20056;-76
2021/03/02 08:48:12;;;;;;;23.08;8.63;;;;;;;4.03;73.38;101326.03;5036932;28;20451;-78
2021/03/02 08:50:42;;;;;;;21.23;8.57;;;;;;;4.17;72.87;101330.09;5027567;28;20087;-77
2021/03/02 08:53:24;;;;;;;20.45;8.45;;;;;;;4.61;71.66;101331.16;5032240;28;20061;-77
2021/03/02 08:55:50;;;;;;;23.10;9.13;;;;;;;4.21;72.26;101324.28;5020844;28;20048;-77
2021/03/02 08:58:34;;;;;;;19.40;8.27;;;;;;;4.64;71.46;101334.78;5021358;28;20148;-78
2021/03/02 09:01:21;;;;;;;18.38;7.75;;;;;;;4.17;72.80;101334.44;5044497;28;20040;-78
2021/03/02 09:03:48;;;;;;;14.25;6.72;;;;;;;4.40;72.31;101336.31;5039504;28;20123;-77
2021/03/02 09:06:26;;;;;;;24.60;8.40;;;;;;;4.69;71.23;101327.22;5016013;28;20048;-77
2021/03/02 09:09:03;;;;;;;17.10;7.78;;;;;;;4.55;71.38;101336.97;5030114;28;20060;-77
2021/03/02 09:11:41;;;;;;;17.80;8.20;;;;;;;4.35;72.64;101336.13;5056216;28;20045;-78
2021/03/02 09:14:33;;;;;;;18.70;7.40;;;;;;;5.00;70.84;101332.81;5031582;28;20057;-78
2021/03/02 09:17:04;;;;;;;21.33;9.02;;;;;;;4.99;70.59;101333.63;5040609;28;20049;-77
2021/03/02 09:19:35;;;;;;;20.52;8.15;;;;;;;4.59;71.96;101336.28;5037444;28;20504;-80
2021/03/02 09:22:09;;;;;;;15.93;7.63;;;;;;;4.89;71.35;101331.53;5034960;28;20128;-78
2021/03/02 09:24:42;;;;;;;19.65;8.73;;;;;;;4.98;71.21;101333.59;5038142;28;20128;-79
2021/03/02 09:27:12;;;;;;;19.67;8.25;;;;;;;5.02;71.15;101343.25;5037888;28;20172;-77
2021/03/02 09:29:44;;;;;;;17.23;8.05;;;;;;;5.17;70.68;101336.13;5020022;28;20147;-77
2021/03/02 09:32:23;;;;;;;17.63;8.45;;;;;;;4.91;71.28;101335.03;5037764;28;20144;-79
2021/03/02 09:34:56;;;;;;;17.90;8.75;;;;;;;4.78;71.84;101337.94;5019686;28;20045;-78
2021/03/02 09:37:23;;;;;;;14.38;7.80;;;;;;;4.86;71.54;101338.25;5032850;28;20372;-79
2021/03/02 09:39:59;;;;;;;19.02;8.18;;;;;;;5.07;70.68;101345.22;5016555;28;20044;-78
2021/03/02 09:42:31;;;;;;;20.80;9.20;;;;;;;4.71;72.23;101352.31;5037914;28;20102;-77
2021/03/02 09:45:09;;;;;;;19.50;9.70;;;;;;;4.88;71.30;101352.16;5018303;28;20120;-76
2021/03/02 09:47:37;;;;;;;20.77;9.02;;;;;;;4.63;72.40;101355.41;5057696;28;20094;-76
2021/03/02 09:50:16;;;;;;;24.70;10.48;;;;;;;4.67;72.21;101354.72;5031549;28;20104;-78
2021/03/02 09:52:45;;;;;;;23.90;10.48;;;;;;;4.69;72.62;101351.41;5037723;28;20045;-77
2021/03/02 09:55:32;;;;;;;19.75;10.27;;;;;;;4.71;72.81;101348.84;5028947;28;20063;-78
2021/03/02 09:58:19;;;;;;;25.33;11.02;;;;;;;4.44;73.63;101351.16;5032019;28;20499;-78
2021/03/02 10:00:45;;;;;;;26.58;10.88;;;;;;;4.31;74.15;101346.28;5031389;28;20044;-76
2021/03/02 10:03:21;;;;;;;23.10;10.60;;;;;;;4.71;72.99;101349.75;5026090;28;20490;-78
2021/03/02 10:06:02;;;;;;;28.77;12.55;;;;;;;5.17;72.89;101351.66;5038658;28;20060;-81
2021/03/02 10:08:36;;;;;;;25.23;11.88;;;;;;;4.98;73.20;101350.03;5041412;28;20496;-78
2021/03/02 10:11:15;;;;;;;26.27;12.32;;;;;;;4.93;72.92;101348.94;5025220;28;20049;-78
2021/03/02 10:13:45;;;;;;;24.60;12.63;;;;;;;5.53;71.71;101358.31;5048875;28;20131;-79
2021/03/02 10:16:31;;;;;;;24.92;11.18;;;;;;;4.93;72.59;101353.25;5028615;28;20086;-79
2021/03/02 10:19:33;;;;;;;23.95;11.77;;;;;;;5.13;72.24;101349.78;5038597;28;20040;-77
2021/03/02 10:22:09;;;;;;;30.25;13.50;;;;;;;4.41;74.18;101353.63;4998351;28;20061;-78
2021/03/02 10:24:41;;;;;;;29.00;13.77;;;;;;;5.25;72.30;101350.25;5002505;28;20374;-76
2021/03/02 10:27:11;;;;;;;28.45;13.27;;;;;;;5.37;71.72;101349.88;4959135;28;20297;-76
2021/03/02 10:29:37;;;;;;;26.55;12.98;;;;;;;5.21;72.38;101345.78;4978559;28;20061;-78
2021/03/02 10:32:04;;;;;;;30.75;14.80;;;;;;;4.96;73.42;101341.28;4964229;28;20105;-78
2021/03/02 10:34:35;;;;;;;32.15;14.25;;;;;;;5.51;71.42;101336.63;4985726;28;20054;-78
2021/03/02 10:37:04;;;;;;;30.30;15.23;;;;;;;5.74;70.60;101336.63;4978918;28;20064;-80
2021/03/02 10:39:31;;;;;;;31.65;14.70;;;;;;;5.78;70.21;101338.50;4969970;28;20056;-81
2021/03/02 10:41:59;;;;;;;35.42;15.95;;;;;;;5.06;72.17;101333.09;4982393;28;20054;-82
2021/03/02 10:44:25;;;;;;;33.03;16.13;;;;;;;5.52;70.36;101330.59;4996669;28;20049;-81
2021/03/02 10:46:52;;;;;;;37.90;16.45;;;;;;;5.60;70.77;101341.28;4973495;28;20504;-82
2021/03/02 10:49:19;;;;;;;34.28;15.38;;;;;;;5.83;70.32;101336.97;4967922;28;20177;-78
2021/03/02 10:51:46;;;;;;;35.42;16.83;;;;;;;5.57;69.96;101342.03;4998227;28;20093;-77
2021/03/02 10:54:13;;;;;;;38.88;17.38;;;;;;;5.15;72.44;101332.56;4996441;28;20049;-78
2021/03/02 10:56:39;;;;;;;37.28;17.02;;;;;;;5.64;70.21;101332.81;5001586;28;20212;-79
2021/03/02 10:59:07;;;;;;;40.33;17.58;;;;;;;5.72;69.59;101337.44;5011311;28;20041;-79
2021/03/02 11:01:34;;;;;;;41.15;17.38;;;;;;;6.03;69.41;101336.06;5038303;28;20091;-78
2021/03/02 11:04:07;;;;;;;37.33;17.92;;;;;;;5.85;69.87;101332.75;5035548;28;20065;-78
2021/03/02 11:06:33;;;;;;;46.13;19.25;;;;;;;6.04;69.28;101343.88;5037596;28;20061;-79
2021/03/02 11:09:03;;;;;;;38.95;18.67;;;;;;;6.33;68.38;101333.69;5040496;28;20069;-78
2021/03/02 11:11:30;;;;;;;42.38;19.80;;;;;;;5.66;70.51;101341.50;5023418;28;20065;-78
2021/03/02 11:13:57;;;;;;;46.97;20.85;;;;;;;5.65;71.15;101343.25;5036215;28;20449;-78
2021/03/02 11:16:24;;;;;;;42.58;19.80;;;;;;;5.68;70.45;101351.13;5022981;28;20080;-78
2021/03/02 11:18:53;;;;;;;43.83;19.67;;;;;;;5.64;70.28;101343.16;5018679;28;20079;-77
2021/03/02 11:21:21;;;;;;;40.53;19.45;;;;;;;5.89;69.56;101350.22;5010784;28;20057;-76
2021/03/02 11:23:47;;;;;;;37.95;19.80;;;;;;;5.93;69.42;101345.19;4997145;28;20346;-77
2021/03/02 11:26:14;;;;;;;51.50;22.00;;;;;;;6.10;68.13;101340.63;5015357;28;20053;-81
2021/03/02 11:28:40;;;;;;;47.33;21.77;;;;;;;5.95;68.80;101335.75;5032834;28;20045;-75
2021/03/02 11:31:08;;;;;;;43.42;20.70;;;;;;;5.79;69.63;101335.97;5029552;28;20060;-74
2021/03/02 11:33:35;;;;;;;51.92;21.27;;;;;;;5.44;71.24;101333.72;5033954;28;20055;-79
2021/03/02 11:36:03;;;;;;;51.80;22.95;;;;;;;5.52;71.14;101335.78;5015606;28;20048;-77